createdAt,value
2023-03-14T00:00:57.928Z,9.80
2023-03-14T00:03:43.443Z,11.02
2023-03-14T00:06:10.719Z,14.63
2023-03-14T00:08:44.576Z,10.85
2023-03-14T00:11:20.803Z,13.52
2023-03-14T00:13:54.367Z,16.25
2023-03-14T00:16:23.228Z,12.07
2023-03-14T00:18:49.880Z,9.60
2023-03-14T00:21:16.459Z,12.15
2023-03-14T00:23:43.793Z,9.05
2023-03-14T00:26:18.814Z,8.25
2023-03-14T00:28:45.605Z,12.93
2023-03-14T00:31:15.836Z,11.73
2023-03-14T00:37:17.318Z,8.43
2023-03-14T00:40:11.181Z,11.20
2023-03-14T00:42:37.748Z,8.27
2023-03-14T00:45:04.922Z,9.15
2023-03-14T00:47:34.254Z,9.07
2023-03-14T00:50:00.749Z,7.88
2023-03-14T00:52:27.266Z,8.23
2023-03-14T00:54:53.819Z,8.80
2023-03-14T00:57:20.446Z,7.25
2023-03-14T00:59:47.064Z,6.82
2023-03-14T01:02:13.646Z,9.10
2023-03-14T01:04:40.465Z,4.60
2023-03-14T01:07:10.164Z,9.20
2023-03-14T01:09:36.857Z,6.47
2023-03-14T01:12:05.861Z,4.15
2023-03-14T01:14:32.467Z,3.75
2023-03-14T01:17:01.703Z,7.57
2023-03-14T01:19:29.462Z,5.72
2023-03-14T01:21:56.060Z,5.88
2023-03-14T01:24:22.867Z,7.35
2023-03-14T01:26:54.252Z,6.97
2023-03-14T01:29:20.924Z,4.60
2023-03-14T01:31:47.519Z,4.35
2023-03-14T01:34:14.347Z,3.45
2023-03-14T01:36:47.307Z,4.93
2023-03-14T01:39:14.516Z,7.53
2023-03-14T01:41:42.250Z,4.53
2023-03-14T01:44:20.990Z,5.10
2023-03-14T01:46:48.000Z,6.85
2023-03-14T01:49:35.725Z,4.10
2023-03-14T01:52:25.724Z,6.63
2023-03-14T01:55:01.835Z,6.78
2023-03-14T01:57:32.823Z,4.63
2023-03-14T02:00:12.269Z,4.88
2023-03-14T02:02:51.643Z,3.72
2023-03-14T02:05:24.116Z,7.05
2023-03-14T02:08:00.635Z,7.60
2023-03-14T02:10:40.121Z,7.75
2023-03-14T02:13:09.141Z,5.43
2023-03-14T02:15:51.260Z,4.55
2023-03-14T02:18:47.302Z,3.65
2023-03-14T02:21:54.516Z,6.68
2023-03-14T02:24:31.937Z,5.75
2023-03-14T02:27:13.904Z,6.60
2023-03-14T02:29:55.818Z,4.05
2023-03-14T02:32:24.898Z,5.82
2023-03-14T02:34:56.104Z,4.80
2023-03-14T02:37:27.574Z,2.80
2023-03-14T02:39:57.223Z,3.67
2023-03-14T02:42:24.132Z,6.80
2023-03-14T02:45:00.928Z,4.03
2023-03-14T02:47:31.462Z,6.57
2023-03-14T02:50:21.508Z,7.28
2023-03-14T02:52:47.999Z,6.18
2023-03-14T02:55:15.685Z,6.55
2023-03-14T02:57:46.196Z,5.82
2023-03-14T03:00:13.390Z,7.10
2023-03-14T03:02:40.682Z,5.50
2023-03-14T03:05:07.500Z,4.80
2023-03-14T03:07:34.194Z,5.75
2023-03-14T03:10:00.994Z,5.88
2023-03-14T03:12:28.825Z,5.88
2023-03-14T03:14:55.366Z,6.70
2023-03-14T03:17:21.995Z,5.65
2023-03-14T03:19:48.596Z,3.17
2023-03-14T03:22:15.251Z,6.18
2023-03-14T03:24:41.736Z,5.60
2023-03-14T03:27:08.330Z,4.20
2023-03-14T03:29:35.372Z,4.07
2023-03-14T03:32:02.430Z,4.95
2023-03-14T03:34:29.045Z,3.67
2023-03-14T03:36:59.878Z,5.63
2023-03-14T03:39:34.045Z,4.88
2023-03-14T03:42:00.793Z,5.55
2023-03-14T03:44:28.688Z,8.32
2023-03-14T03:46:55.558Z,4.13
2023-03-14T03:49:23.162Z,6.60
2023-03-14T03:51:53.059Z,7.07
2023-03-14T03:54:19.654Z,5.80
2023-03-14T03:56:46.523Z,8.30
2023-03-14T03:59:14.490Z,3.72
2023-03-14T04:01:47.627Z,5.80
2023-03-14T04:04:19.313Z,6.78
2023-03-14T04:06:46.123Z,6.28
2023-03-14T04:09:13.546Z,4.80
2023-03-14T04:11:46.116Z,10.20
2023-03-14T04:14:21.763Z,8.10
2023-03-14T04:16:53.714Z,5.95
2023-03-14T04:19:21.652Z,8.25
2023-03-14T04:21:50.578Z,4.38
2023-03-14T04:24:20.974Z,8.32
2023-03-14T04:26:49.838Z,8.50
2023-03-14T04:29:16.868Z,8.48
2023-03-14T04:31:45.426Z,10.15
2023-03-14T04:34:12.137Z,5.63
2023-03-14T04:36:45.054Z,8.30
2023-03-14T04:39:16.877Z,2.67
2023-03-14T04:41:51.603Z,10.65
2023-03-14T04:44:25.356Z,8.10
2023-03-14T04:46:53.562Z,5.88
2023-03-14T04:49:21.317Z,11.25
2023-03-14T04:52:00.323Z,4.90
2023-03-14T04:54:28.695Z,4.00
2023-03-14T04:56:58.294Z,4.10
2023-03-14T04:59:26.196Z,5.18
2023-03-14T05:04:41.258Z,2.72
2023-03-14T05:07:43.153Z,8.45
2023-03-14T05:10:34.911Z,4.88
2023-03-14T05:13:30.415Z,4.50
2023-03-14T05:16:13.653Z,4.00
2023-03-14T05:19:15.375Z,4.70
2023-03-14T05:22:00.667Z,6.05
2023-03-14T05:24:50.341Z,5.13
2023-03-14T05:27:28.645Z,7.10
2023-03-14T05:30:10.918Z,2.03
2023-03-14T05:32:55.920Z,2.47
2023-03-14T05:35:41.912Z,6.55
2023-03-14T05:38:31.677Z,2.92
2023-03-14T05:41:24.634Z,4.07
2023-03-14T05:44:09.813Z,4.82
2023-03-14T05:46:54.468Z,7.00
2023-03-14T05:49:36.977Z,6.20
2023-03-14T05:52:29.717Z,5.57
2023-03-14T05:58:11.532Z,3.33
2023-03-14T06:01:07.133Z,7.68
2023-03-14T06:03:46.322Z,8.52
2023-03-14T06:06:13.912Z,7.90
2023-03-14T06:08:46.420Z,9.65
2023-03-14T06:11:12.972Z,5.95
2023-03-14T06:13:39.783Z,5.95
2023-03-14T06:16:07.243Z,4.85
2023-03-14T06:18:33.964Z,5.10
2023-03-14T06:21:00.832Z,7.65
2023-03-14T06:23:31.846Z,6.13
2023-03-14T06:28:32.411Z,5.60
2023-03-14T06:31:03.504Z,6.80
2023-03-14T06:33:36.080Z,8.95
2023-03-14T06:36:05.458Z,7.85
2023-03-14T06:38:33.882Z,5.75
2023-03-14T06:41:08.508Z,7.55
2023-03-14T06:43:41.971Z,4.93
2023-03-14T06:46:09.313Z,4.63
2023-03-14T06:48:38.555Z,2.40
2023-03-14T06:51:07.384Z,2.85
2023-03-14T06:53:36.495Z,2.90
2023-03-14T06:56:03.670Z,1.52
2023-03-14T06:58:32.502Z,2.50
2023-03-14T07:01:00.235Z,0.55
2023-03-14T07:03:32.285Z,3.47
2023-03-14T07:06:00.699Z,2.28
2023-03-14T07:08:27.501Z,0.40
2023-03-14T07:10:56.759Z,0.80
2023-03-14T07:13:23.400Z,3.42
2023-03-14T07:16:01.376Z,1.17
2023-03-14T07:18:28.605Z,0.75
2023-03-14T07:20:56.112Z,1.85
2023-03-14T07:23:22.643Z,0.85
2023-03-14T07:25:54.498Z,1.38
2023-03-14T07:28:24.093Z,0.90
2023-03-14T07:30:57.290Z,1.30
2023-03-14T07:33:30.799Z,0.80
2023-03-14T07:35:57.514Z,0.20
2023-03-14T07:38:24.145Z,2.03
2023-03-14T07:41:10.985Z,2.00
2023-03-14T07:43:43.834Z,1.58
2023-03-14T07:46:10.498Z,1.35
2023-03-14T07:48:36.996Z,3.90
2023-03-14T07:51:03.712Z,1.27
2023-03-14T07:53:30.154Z,1.85
2023-03-14T07:55:57.044Z,2.80
2023-03-14T07:58:24.203Z,0.43
2023-03-14T08:00:52.398Z,0.68
2023-03-14T08:03:19.331Z,1.15
2023-03-14T08:05:49.708Z,2.38
2023-03-14T08:10:43.139Z,3.13
2023-03-14T08:13:11.108Z,3.85
2023-03-14T08:15:38.039Z,3.20
2023-03-14T08:18:06.015Z,2.47
2023-03-14T08:20:34.824Z,1.42
2023-03-14T08:23:03.718Z,1.88
2023-03-14T08:25:30.453Z,3.70
2023-03-14T08:27:57.558Z,0.63
2023-03-14T08:30:25.231Z,1.50
2023-03-14T08:32:52.219Z,0.85
2023-03-14T08:35:19.160Z,2.72
2023-03-14T08:37:45.668Z,0.93
2023-03-14T08:40:12.900Z,2.72
2023-03-14T08:42:40.798Z,2.50
2023-03-14T08:45:09.169Z,4.32
2023-03-14T08:47:36.054Z,1.50
2023-03-14T08:50:06.444Z,2.22
2023-03-14T08:52:33.227Z,2.13
2023-03-14T08:55:02.247Z,2.88
2023-03-14T08:57:28.961Z,2.20
2023-03-14T08:59:57.136Z,1.98
2023-03-14T09:02:24.944Z,1.15
2023-03-14T09:04:52.432Z,1.95
2023-03-14T09:07:19.663Z,3.60
2023-03-14T09:09:46.672Z,4.68
2023-03-14T09:12:14.590Z,1.70
2023-03-14T09:14:41.413Z,3.92
2023-03-14T09:17:08.750Z,2.50
2023-03-14T09:19:38.777Z,1.40
2023-03-14T09:22:05.384Z,3.20
2023-03-14T09:24:32.144Z,1.48
2023-03-14T09:26:58.680Z,6.80
2023-03-14T09:29:25.564Z,5.90
2023-03-14T09:31:52.722Z,5.25
2023-03-14T09:34:19.800Z,3.70
2023-03-14T09:36:46.287Z,3.90
2023-03-14T09:39:13.969Z,5.85
2023-03-14T09:41:43.962Z,2.58
2023-03-14T09:44:29.641Z,7.07
2023-03-14T09:47:01.569Z,4.65
2023-03-14T09:49:30.764Z,6.20
2023-03-14T09:52:02.470Z,11.15
2023-03-14T09:54:53.560Z,12.35
2023-03-14T09:57:24.301Z,11.98
2023-03-14T09:59:52.730Z,6.00
2023-03-14T10:02:29.758Z,6.63
2023-03-14T10:04:56.336Z,9.18
2023-03-14T10:07:39.278Z,10.98
2023-03-14T10:10:11.841Z,6.85
2023-03-14T10:12:43.036Z,7.15
2023-03-14T10:15:20.875Z,5.93
2023-03-14T10:17:56.719Z,5.35
2023-03-14T10:20:34.107Z,11.82
2023-03-14T10:23:21.039Z,7.85
2023-03-14T10:26:05.835Z,6.78
2023-03-14T10:28:37.887Z,8.15
2023-03-14T10:31:06.453Z,8.07
2023-03-14T10:33:35.884Z,10.80
2023-03-14T10:36:20.704Z,16.63
2023-03-14T10:38:47.434Z,11.70
2023-03-14T10:41:47.438Z,5.00
2023-03-14T10:44:16.271Z,9.82
2023-03-14T10:46:43.060Z,7.57
2023-03-14T10:49:38.124Z,12.45
2023-03-14T10:52:15.150Z,7.10
2023-03-14T10:54:48.206Z,8.23
2023-03-14T10:57:14.819Z,4.80
2023-03-14T10:59:44.628Z,11.90
2023-03-14T11:02:29.678Z,12.07
2023-03-14T11:05:33.885Z,10.35
2023-03-14T11:08:14.315Z,4.93
2023-03-14T11:10:44.621Z,12.00
2023-03-14T11:16:22.408Z,10.18
2023-03-14T11:19:01.113Z,6.85
2023-03-14T11:21:36.217Z,11.73
2023-03-14T11:24:20.826Z,7.53
2023-03-14T11:27:06.361Z,9.73
2023-03-14T11:29:59.239Z,5.63
2023-03-14T11:32:41.421Z,11.02
2023-03-14T11:35:27.853Z,7.85
2023-03-14T11:38:03.528Z,8.80
2023-03-14T11:40:32.259Z,7.78
2023-03-14T11:43:12.759Z,6.00
2023-03-14T11:45:43.697Z,2.40
2023-03-14T11:48:35.076Z,7.63
2023-03-14T11:51:05.897Z,8.50
2023-03-14T11:53:49.431Z,4.65
2023-03-14T11:56:33.260Z,6.45
2023-03-14T11:59:12.544Z,3.67
2023-03-14T12:02:11.633Z,11.38
2023-03-14T12:05:13.397Z,4.55
2023-03-14T12:08:04.918Z,12.93
2023-03-14T12:13:21.002Z,4.53
2023-03-14T12:16:41.546Z,4.82
2023-03-14T12:19:36.144Z,8.00
2023-03-14T12:22:13.410Z,7.90
2023-03-14T12:24:50.098Z,2.35
2023-03-14T12:27:57.307Z,3.67
2023-03-14T12:30:30.543Z,7.60
2023-03-14T12:33:13.211Z,4.63
2023-03-14T12:42:45.822Z,4.03
2023-03-14T12:45:24.702Z,7.55
2023-03-14T12:48:29.181Z,6.30
2023-03-14T12:51:02.581Z,4.00
2023-03-14T12:53:41.206Z,4.70
2023-03-14T12:56:19.060Z,7.95
2023-03-14T12:59:31.257Z,6.80
2023-03-14T13:02:03.516Z,7.50
2023-03-14T13:04:40.300Z,3.83
2023-03-14T13:07:30.386Z,6.03
2023-03-14T13:10:01.715Z,2.97
2023-03-14T13:12:36.008Z,5.15
2023-03-14T13:15:14.240Z,3.40
2023-03-14T13:17:43.274Z,1.67
2023-03-14T13:20:19.520Z,1.58
2023-03-14T13:22:51.714Z,4.95
2023-03-14T13:25:19.459Z,2.65
2023-03-14T13:27:46.389Z,2.38
2023-03-14T13:30:20.768Z,2.60
2023-03-14T13:32:49.039Z,2.95
2023-03-14T13:35:21.608Z,4.18
2023-03-14T13:38:00.673Z,2.75
2023-03-14T13:40:35.870Z,9.02
2023-03-14T13:43:15.567Z,5.35
2023-03-14T13:45:53.006Z,4.18
2023-03-14T13:48:20.612Z,4.82
2023-03-14T13:50:52.239Z,4.72
2023-03-14T13:53:18.961Z,2.65
2023-03-14T13:55:45.844Z,5.32
2023-03-14T13:58:30.047Z,4.68
2023-03-14T14:01:07.490Z,8.00
2023-03-14T14:03:39.643Z,2.90
2023-03-14T14:06:17.591Z,2.22
2023-03-14T14:08:44.861Z,4.78
2023-03-14T14:11:42.709Z,8.52
2023-03-14T14:14:35.786Z,7.43
2023-03-14T14:17:04.429Z,3.70
2023-03-14T14:19:34.842Z,7.78
2023-03-14T14:22:03.056Z,7.75
2023-03-14T14:24:32.520Z,5.25
2023-03-14T14:27:14.038Z,4.25
2023-03-14T14:29:40.680Z,5.30
2023-03-14T14:32:10.231Z,3.80
2023-03-14T14:34:55.213Z,2.25
2023-03-14T14:37:30.596Z,8.48
2023-03-14T14:40:00.198Z,5.80
2023-03-14T14:42:30.199Z,3.88
2023-03-14T14:44:59.002Z,2.70
2023-03-14T14:47:28.147Z,2.92
2023-03-14T14:49:59.375Z,3.10
2023-03-14T14:52:41.258Z,4.47
2023-03-14T14:55:19.643Z,3.00
2023-03-14T14:57:54.645Z,4.32
2023-03-14T15:00:27.756Z,6.65
2023-03-14T15:02:59.446Z,3.63
2023-03-14T15:05:31.078Z,2.13
2023-03-14T15:07:58.325Z,5.35
2023-03-14T15:10:26.499Z,1.13
2023-03-14T15:12:53.193Z,3.65
2023-03-14T15:15:20.531Z,3.55
2023-03-14T15:17:47.105Z,4.72
2023-03-14T15:20:16.187Z,4.78
2023-03-14T15:22:43.036Z,4.72
2023-03-14T15:25:18.616Z,4.90
2023-03-14T15:27:53.699Z,7.00
2023-03-14T15:30:21.162Z,5.63
2023-03-14T15:32:48.463Z,2.88
2023-03-14T15:35:17.669Z,2.40
2023-03-14T15:37:46.303Z,9.45
2023-03-14T15:40:15.011Z,3.45
2023-03-14T15:42:42.119Z,10.25
2023-03-14T15:45:09.290Z,2.95
2023-03-14T15:47:35.876Z,4.65
2023-03-14T15:50:05.141Z,8.45
2023-03-14T15:52:31.651Z,3.47
2023-03-14T15:54:58.178Z,2.33
2023-03-14T15:57:25.687Z,2.97
2023-03-14T15:59:52.424Z,3.33
2023-03-14T16:02:18.950Z,4.38
2023-03-14T16:04:46.810Z,5.20
2023-03-14T16:07:14.349Z,0.65
2023-03-14T16:09:40.801Z,7.13
2023-03-14T16:12:08.860Z,4.38
2023-03-14T16:14:35.629Z,4.80
2023-03-14T16:17:02.337Z,6.25
2023-03-14T16:19:29.249Z,4.30
2023-03-14T16:21:55.901Z,8.55
2023-03-14T16:24:22.555Z,4.53
2023-03-14T16:26:49.472Z,4.93
2023-03-14T16:29:17.173Z,8.40
2023-03-14T16:31:43.989Z,3.00
2023-03-14T16:34:11.861Z,2.75
2023-03-14T16:36:38.586Z,4.05
2023-03-14T16:39:07.233Z,6.95
2023-03-14T16:41:35.257Z,5.07
2023-03-14T16:44:03.091Z,3.72
2023-03-14T16:46:30.540Z,7.40
2023-03-14T16:48:57.559Z,2.92
2023-03-14T16:51:24.444Z,7.30
2023-03-14T16:53:57.052Z,3.50
2023-03-14T16:56:29.850Z,9.48
2023-03-14T16:59:06.248Z,2.13
2023-03-14T17:01:32.984Z,2.97
2023-03-14T17:03:59.812Z,4.90
2023-03-14T17:06:28.883Z,5.53
2023-03-14T17:08:59.251Z,1.38
2023-03-14T17:11:26.025Z,3.50
2023-03-14T17:13:58.055Z,3.47
2023-03-14T17:16:28.137Z,4.13
2023-03-14T17:18:54.934Z,1.73
2023-03-14T17:21:25.332Z,4.65
2023-03-14T17:26:29.317Z,2.08
2023-03-14T17:28:56.147Z,5.93
2023-03-14T17:31:24.028Z,3.90
2023-03-14T17:33:57.105Z,3.95
2023-03-14T17:36:54.340Z,5.80
2023-03-14T17:39:29.213Z,5.63
2023-03-14T17:41:58.917Z,6.78
2023-03-14T17:44:31.827Z,1.80
2023-03-14T17:47:26.269Z,4.10
2023-03-14T17:49:52.917Z,2.85
2023-03-14T17:52:53.196Z,4.68
2023-03-14T17:55:22.978Z,6.05
2023-03-14T17:58:15.299Z,3.15
2023-03-14T18:00:42.033Z,1.20
2023-03-14T18:03:08.658Z,2.03
2023-03-14T18:05:38.747Z,5.57
2023-03-14T18:08:05.863Z,4.05
2023-03-14T18:10:32.520Z,4.65
2023-03-14T18:12:59.045Z,2.58
2023-03-14T18:15:25.592Z,3.72
2023-03-14T18:17:52.094Z,6.70
2023-03-14T18:20:18.541Z,4.53
2023-03-14T18:22:45.118Z,3.38
2023-03-14T18:25:11.824Z,3.50
2023-03-14T18:27:38.532Z,5.15
2023-03-14T18:30:06.000Z,3.60
2023-03-14T18:32:32.517Z,4.43
2023-03-14T18:34:59.077Z,3.78
2023-03-14T18:37:25.643Z,1.20
2023-03-14T18:39:52.146Z,3.17
2023-03-14T18:42:18.674Z,4.63
2023-03-14T18:44:46.141Z,3.25
2023-03-14T18:47:12.940Z,6.00
2023-03-14T18:49:40.392Z,3.38
2023-03-14T18:52:07.764Z,3.70
2023-03-14T18:54:34.541Z,9.30
2023-03-14T18:57:01.248Z,5.65
2023-03-14T18:59:27.983Z,2.88
2023-03-14T19:01:57.521Z,4.88
2023-03-14T19:04:26.416Z,3.63
2023-03-14T19:06:54.093Z,3.40
2023-03-14T19:09:20.623Z,5.50
2023-03-14T19:11:53.887Z,3.00
2023-03-14T19:14:22.818Z,1.10
2023-03-14T19:16:50.469Z,3.67
2023-03-14T19:19:16.995Z,4.30
2023-03-14T19:21:43.555Z,4.47
2023-03-14T19:24:16.378Z,7.15
2023-03-14T19:26:42.869Z,10.00
2023-03-14T19:29:09.974Z,5.20
2023-03-14T19:31:36.599Z,3.75
2023-03-14T19:34:03.620Z,4.13
2023-03-14T19:36:35.741Z,12.32
2023-03-14T19:39:03.641Z,5.57
2023-03-14T19:41:30.934Z,18.90
2023-03-14T19:43:57.375Z,16.13
2023-03-14T19:46:24.017Z,11.20
2023-03-14T19:48:56.546Z,15.13
2023-03-14T19:51:23.596Z,9.10
2023-03-14T19:53:52.102Z,8.57
2023-03-14T19:56:23.851Z,8.70
2023-03-14T19:58:52.802Z,8.88
2023-03-14T20:01:19.238Z,7.68
2023-03-14T20:03:45.805Z,6.00
2023-03-14T20:06:12.833Z,5.90
2023-03-14T20:08:40.984Z,6.53
2023-03-14T20:11:08.857Z,4.75
2023-03-14T20:13:35.695Z,3.65
2023-03-14T20:16:07.448Z,3.17
2023-03-14T20:18:35.563Z,2.67
2023-03-14T20:21:09.820Z,5.25
2023-03-14T20:23:36.347Z,4.68
2023-03-14T20:26:03.263Z,4.22
2023-03-14T20:28:29.841Z,1.95
2023-03-14T20:30:56.460Z,3.08
2023-03-14T20:33:23.184Z,3.03
2023-03-14T20:35:58.334Z,2.00
2023-03-14T20:38:26.675Z,4.80
2023-03-14T20:40:57.026Z,3.72
2023-03-14T20:43:30.803Z,5.80
2023-03-14T20:45:59.098Z,5.30
2023-03-14T20:48:27.332Z,5.13
2023-03-14T20:50:57.137Z,8.73
2023-03-14T20:53:24.680Z,3.45
2023-03-14T20:55:54.395Z,7.90
2023-03-14T20:58:20.886Z,4.50
2023-03-14T21:00:49.596Z,5.10
2023-03-14T21:03:17.627Z,7.90
2023-03-14T21:05:46.476Z,4.47
2023-03-14T21:08:14.249Z,2.55
2023-03-14T21:10:40.764Z,6.72
2023-03-14T21:13:07.223Z,6.35
2023-03-14T21:15:33.730Z,3.33
2023-03-14T21:18:05.347Z,5.32
2023-03-14T21:20:37.568Z,4.10
2023-03-14T21:23:05.071Z,4.22
2023-03-14T21:25:32.746Z,6.30
2023-03-14T21:27:59.389Z,2.85
2023-03-14T21:30:26.230Z,6.65
2023-03-14T21:32:52.778Z,4.38
2023-03-14T21:35:19.181Z,5.88
2023-03-14T21:37:46.459Z,6.03
2023-03-14T21:40:15.993Z,6.53
2023-03-14T21:42:42.604Z,1.10
2023-03-14T21:45:09.839Z,2.65
2023-03-14T21:47:36.280Z,1.48
2023-03-14T21:50:02.970Z,3.22
2023-03-14T21:52:29.551Z,1.65
2023-03-14T21:54:56.006Z,1.65
2023-03-14T21:57:30.129Z,1.63
2023-03-14T21:59:56.944Z,4.40
2023-03-14T22:02:23.442Z,2.53
2023-03-14T22:04:50.066Z,2.00
2023-03-14T22:07:18.581Z,1.35
2023-03-14T22:09:46.403Z,1.77
2023-03-14T22:12:21.831Z,1.65
2023-03-14T22:14:51.286Z,1.25
2023-03-14T22:17:20.282Z,1.17
2023-03-14T22:19:46.715Z,4.25
2023-03-14T22:22:13.169Z,2.35
2023-03-14T22:24:39.698Z,4.72
2023-03-14T22:27:07.072Z,1.85
2023-03-14T22:29:37.461Z,1.80
2023-03-14T22:32:04.988Z,7.57
2023-03-14T22:34:31.812Z,2.05
2023-03-14T22:37:00.283Z,0.60
2023-03-14T22:39:27.462Z,0.32
2023-03-14T22:41:55.008Z,0.85
2023-03-14T22:44:21.704Z,0.55
2023-03-14T22:46:48.454Z,0.50
2023-03-14T22:49:15.109Z,0.10
2023-03-14T22:51:41.612Z,0.43
2023-03-14T22:54:08.098Z,3.10
2023-03-14T22:56:35.185Z,0.38
2023-03-14T22:59:02.883Z,2.08
2023-03-14T23:01:29.323Z,0.75
2023-03-14T23:03:55.938Z,0.52
2023-03-14T23:06:22.428Z,1.65
2023-03-14T23:08:48.865Z,0.30
2023-03-14T23:11:15.503Z,2.85
2023-03-14T23:13:42.513Z,0.17
2023-03-14T23:16:12.066Z,0.82
2023-03-14T23:18:41.504Z,0.45
2023-03-14T23:21:12.896Z,1.67
2023-03-14T23:23:40.842Z,2.13
2023-03-14T23:26:10.683Z,3.35
2023-03-14T23:28:37.710Z,1.17
2023-03-14T23:31:06.996Z,1.75
2023-03-14T23:33:35.556Z,0.38
2023-03-14T23:36:13.009Z,1.00
2023-03-14T23:38:41.407Z,0.52
2023-03-14T23:41:09.284Z,0.32
2023-03-14T23:43:35.791Z,0.50
2023-03-14T23:46:02.363Z,0.25
2023-03-14T23:48:33.718Z,0.50
2023-03-14T23:51:03.832Z,0.30
2023-03-14T23:53:31.042Z,0.80
2023-03-14T23:55:58.614Z,0.22
2023-03-14T23:58:25.375Z,2.63
